Airfield :
LOGIN :

Register | Disclaimer

   EN    FR    IT 

 










Legend :    VFR   Marginal VFR   IFR   Intensive IFR   Very Intensive IFR
Visi :
Ceiling :
>= 8 km
>= 3000ft
5 to 8 km
1000 to 3000 ft
1500m to 5 km
500 to 1000 ft
800 to 1500m
200 to 500 ft
< 800m
< 200 ft
Symbols :   Thunderstorms  Fog  Heavy snow  Heavy precipitations  Wind > 20 kt
SIGMETs :     Misc.  Thunderstorms  Icing  Turbulence  Mountain Waves  Volcanic Ashes







- Airport Elevation : 197 ft
- IATA code : XOG
- Download approach charts


LFMO - Orange

CURRENT METAR :
  • 162200Z AUTO 35016KT CAVOK 04/01 Q1020 TEMPO 35025G35KT

EXPIRED METARs :
  • 162130Z AUTO 36017KT CAVOK 04/01 Q1020 TEMPO 35025G35KT
  • 162100Z AUTO 35018KT 9999 FEW050 04/01 Q1020 TEMPO 35025G35KT
  • 162030Z AUTO 36015KT CAVOK 04/01 Q1020 TEMPO 35025G35KT
  • 162000Z AUTO 36017KT 9999 FEW037 04/01 Q1020 BECMG 35020G30KT
  • 161930Z AUTO 35015KT CAVOK 04/01 Q1019 BECMG 35020G30KT

TAF TAF LFMO
Valid from the 16 at 21:00 until the 17 at 21:00 UTC


162000Z 1621/1721 35010G20KT CAVOK
TEMPO 1621/1706 35025G35KT
TEMPO 1706/1721 35015G25KT
No reported NOTAMs for that airfield.
1 SIGMET reported for the Marseille FIR (LFMM) :
 
Severe turbulence
LFMM SIGMET 7 VALID 162000/162300 LFPW
LFMM MARSEILLE FIR/UIR SEV TURB FCST WI N4115 E00430 - N4200 E00430 - N4215 E00230 - N4330 E00245 - N4415 E00330 - N4415 E00515 - N4100 E00715 - N4115 E00430 SFC/FL050 STNR NC=



MET'MAP, your aeronautical weather chart ! - Copyright ORBIFLY December 2007 - Disclaimer

ORBIFLY MET'MAP TEAM :

Programming & Development : Alexandra Zaïnal
Concept & Development : Baudouin d'Aumeries
Co-Development & Prog : Marc-Olivier Méhu
Technical & hardware support : Manuel Goepfert

Contact : metmap@orbifly.com




SOURCES & CREDITS :

   NOAA